Time;durP1;ratioP1;P1;durP2;ratioP2;P2;SDS_P1;SDS_P2;PMS_P1;PMS_P2;Temp;Humidity;BMP_temperature;BMP_pressure;BME280_temperature;BME280_humidity;BME280_pressure;Samples;Min_cycle;Max_cycle;Signal;HPM_P1;HPM_P2
2021/05/12 00:01:01;;;;;;;4.95;4.13;;;;;;;-139.48;100.00;61774.03;4979270;28;20084;-62
2021/05/12 00:03:45;;;;;;;5.85;4.00;;;;;;;-139.48;100.00;61774.03;4992785;28;20093;-63
2021/05/12 00:06:29;;;;;;;5.50;3.47;;;;;;;-139.48;100.00;61774.03;4993451;28;20096;-63
2021/05/12 00:09:13;;;;;;;5.85;3.85;;;;;;;-139.48;100.00;61774.03;4978910;28;20045;-62
2021/05/12 00:11:57;;;;;;;5.13;3.30;;;;;;;-139.48;100.00;61774.03;4992660;28;20104;-63
2021/05/12 00:14:41;;;;;;;7.72;3.55;;;;;;;-139.48;100.00;61774.03;4992501;28;20130;-63
2021/05/12 00:17:27;;;;;;;9.70;3.58;;;;;;;-139.48;100.00;61774.03;4992435;28;20548;-63
2021/05/12 00:20:14;;;;;;;9.45;3.10;;;;;;;-139.48;100.00;61774.03;4992256;28;20049;-60
2021/05/12 00:23:05;;;;;;;6.45;4.30;;;;;;;-139.48;100.00;61774.03;4991900;28;20052;-63
2021/05/12 00:25:49;;;;;;;3.22;2.63;;;;;;;-139.48;100.00;61774.03;4993259;28;20423;-63
2021/05/12 00:28:33;;;;;;;5.70;3.53;;;;;;;-139.48;100.00;61774.03;4993012;28;20549;-63
2021/05/12 00:31:17;;;;;;;8.95;3.75;;;;;;;-139.48;100.00;61774.03;4992261;28;20441;-63
2021/05/12 00:34:01;;;;;;;4.88;3.30;;;;;;;-139.48;100.00;61774.03;4992618;28;20089;-63
2021/05/12 00:36:45;;;;;;;4.00;3.22;;;;;;;-139.48;100.00;61774.03;4992155;28;20111;-62
2021/05/12 00:39:29;;;;;;;7.68;3.17;;;;;;;-139.48;100.00;61774.03;4992373;28;20140;-63
2021/05/12 00:42:13;;;;;;;5.05;3.25;;;;;;;-139.48;100.00;61774.03;4992195;28;20053;-63
2021/05/12 00:44:58;;;;;;;4.10;3.42;;;;;;;-139.48;100.00;61774.03;4992181;28;20061;-63
2021/05/12 00:47:42;;;;;;;5.78;3.80;;;;;;;-139.48;100.00;61774.03;4992104;28;20085;-63
2021/05/12 00:50:29;;;;;;;7.22;4.85;;;;;;;-139.48;100.00;61774.03;4993113;28;20108;-63
2021/05/12 00:53:12;;;;;;;9.60;4.50;;;;;;;-139.48;100.00;61774.03;4993331;28;20093;-63
2021/05/12 00:55:56;;;;;;;12.35;4.38;;;;;;;-139.48;100.00;61774.03;4992481;28;20049;-63
2021/05/12 00:58:41;;;;;;;10.60;4.70;;;;;;;-139.48;100.00;61774.03;4992218;28;20096;-63
2021/05/12 01:01:25;;;;;;;6.40;4.60;;;;;;;-139.48;100.00;61774.03;4978587;28;20101;-62
2021/05/12 01:04:09;;;;;;;10.82;4.40;;;;;;;-139.48;100.00;61774.03;4992089;28;20113;-63
2021/05/12 01:06:53;;;;;;;8.13;4.45;;;;;;;-139.48;100.00;61774.03;4992162;28;20061;-63
2021/05/12 01:09:37;;;;;;;6.25;4.68;;;;;;;-139.48;100.00;61774.03;4991935;28;20100;-63
2021/05/12 01:12:21;;;;;;;8.30;5.50;;;;;;;-139.48;100.00;61774.03;4992145;28;20092;-63
2021/05/12 01:15:06;;;;;;;7.07;4.97;;;;;;;-139.48;100.00;61774.03;4992881;28;20129;-63
2021/05/12 01:17:50;;;;;;;9.35;5.43;;;;;;;-139.48;100.00;61774.03;4992261;28;20574;-63
2021/05/12 01:21:05;;;;;;;13.57;5.70;;;;;;;-139.48;100.00;61774.03;4978363;28;20124;-63
2021/05/12 01:23:50;;;;;;;;;;;;;;;-139.48;100.00;61774.03;4993163;28;20077;-63
2021/05/12 01:26:34;;;;;;;6.45;5.72;;;;;;;-139.48;100.00;61774.03;4991693;28;19968;-63
2021/05/12 01:29:18;;;;;;;8.32;5.10;;;;;;;-139.48;100.00;61774.03;4978167;28;20084;-63
2021/05/12 01:32:04;;;;;;;8.43;5.82;;;;;;;-139.48;100.00;61774.03;4991978;28;20057;-63
2021/05/12 01:34:48;;;;;;;13.25;5.78;;;;;;;-139.48;100.00;61774.03;4994377;28;20121;-63
2021/05/12 01:37:32;;;;;;;8.07;6.78;;;;;;;-139.48;100.00;61774.03;4995415;28;20096;-63
2021/05/12 01:40:16;;;;;;;10.30;6.00;;;;;;;-139.48;100.00;61774.03;4995788;28;20470;-62
2021/05/12 01:43:00;;;;;;;9.13;5.85;;;;;;;-139.48;100.00;61774.03;4995428;28;20077;-63
2021/05/12 01:45:44;;;;;;;10.50;6.40;;;;;;;-139.48;100.00;61774.03;4996536;28;20517;-63
2021/05/12 01:48:28;;;;;;;11.85;6.70;;;;;;;-139.48;100.00;61774.03;4995127;28;20097;-62
2021/05/12 01:51:14;;;;;;;9.15;7.07;;;;;;;-139.48;100.00;61774.03;4995123;28;20085;-63
2021/05/12 01:53:58;;;;;;;15.93;6.90;;;;;;;-139.48;100.00;61774.03;4996303;28;20045;-63
2021/05/12 01:56:42;;;;;;;10.73;6.63;;;;;;;-139.48;100.00;61774.03;4994942;28;20056;-63
2021/05/12 01:59:26;;;;;;;12.25;7.32;;;;;;;-139.48;100.00;61774.03;4995144;28;20056;-63
2021/05/12 02:02:10;;;;;;;11.27;7.15;;;;;;;-139.48;100.00;61774.03;4996654;28;20121;-63
2021/05/12 02:04:54;;;;;;;13.60;7.13;;;;;;;-139.48;100.00;61774.03;4994933;28;20525;-63
2021/05/12 02:07:38;;;;;;;12.60;7.15;;;;;;;-139.48;100.00;61774.03;4994921;28;20093;-63
2021/05/12 02:10:23;;;;;;;10.70;7.68;;;;;;;-139.48;100.00;61774.03;4996266;28;20554;-63
2021/05/12 02:13:06;;;;;;;11.88;7.90;;;;;;;-139.48;100.00;61774.03;4995210;28;20088;-63
2021/05/12 02:15:51;;;;;;;15.10;8.02;;;;;;;-139.48;100.00;61774.03;4996128;28;20518;-63
2021/05/12 02:18:35;;;;;;;15.25;8.32;;;;;;;-139.48;100.00;61774.03;4995561;28;20126;-63
2021/05/12 02:21:19;;;;;;;14.45;8.32;;;;;;;-139.48;100.00;61774.03;4995580;28;20104;-63
2021/05/12 02:24:03;;;;;;;13.48;8.43;;;;;;;-139.48;100.00;61774.03;4995467;28;20482;-63
2021/05/12 02:26:48;;;;;;;10.07;8.20;;;;;;;-139.48;100.00;61774.03;4995624;28;20061;-63
2021/05/12 02:29:32;;;;;;;15.23;8.30;;;;;;;-139.48;100.00;61774.03;4995670;28;20108;-63
2021/05/12 02:32:17;;;;;;;15.70;8.70;;;;;;;-139.48;100.00;61774.03;4994545;28;20246;-63
2021/05/12 02:35:01;;;;;;;14.18;9.15;;;;;;;-139.48;100.00;61774.03;4995582;28;20050;-63
2021/05/12 02:37:45;;;;;;;15.30;9.07;;;;;;;-139.48;100.00;61774.03;4994241;28;20053;-63
2021/05/12 02:40:30;;;;;;;18.40;10.00;;;;;;;-139.48;100.00;61774.03;4994425;28;20120;-63
2021/05/12 02:43:14;;;;;;;13.07;9.35;;;;;;;-139.48;100.00;61774.03;4994328;28;20105;-63
2021/05/12 02:45:58;;;;;;;15.95;9.52;;;;;;;-139.48;100.00;61774.03;4994301;28;20089;-63
2021/05/12 02:48:41;;;;;;;19.15;9.73;;;;;;;-139.48;100.00;61774.03;4980537;28;20053;-63
2021/05/12 02:51:25;;;;;;;16.75;9.57;;;;;;;-139.48;100.00;61774.03;4994327;28;20057;-62
2021/05/12 02:54:09;;;;;;;17.58;10.23;;;;;;;-139.48;100.00;61774.03;4980456;28;20141;-63
2021/05/12 02:56:53;;;;;;;14.60;9.65;;;;;;;-139.48;100.00;61774.03;4980363;28;20045;-62
2021/05/12 02:59:37;;;;;;;17.13;10.48;;;;;;;-139.48;100.00;61774.03;4994125;28;20391;-63
2021/05/12 03:02:21;;;;;;;14.80;10.77;;;;;;;-139.48;100.00;61774.03;4995105;28;20138;-63
2021/05/12 03:05:05;;;;;;;15.75;11.02;;;;;;;-139.48;100.00;61774.03;4994716;28;20126;-62
2021/05/12 03:07:49;;;;;;;17.40;11.60;;;;;;;-139.48;100.00;61774.03;4994900;28;20061;-63
2021/05/12 03:10:35;;;;;;;15.25;11.20;;;;;;;-139.48;100.00;61774.03;4995188;28;20069;-63
2021/05/12 03:13:19;;;;;;;15.30;10.57;;;;;;;-139.48;100.00;61774.03;4994860;28;20104;-63
2021/05/12 03:16:03;;;;;;;18.38;12.35;;;;;;;-139.48;100.00;61774.03;4994665;28;20111;-62
2021/05/12 03:18:47;;;;;;;22.27;11.75;;;;;;;-139.48;100.00;61774.03;4980267;28;20077;-63
2021/05/12 03:21:33;;;;;;;18.63;10.77;;;;;;;-139.48;100.00;61774.03;4993783;28;20104;-63
2021/05/12 03:24:17;;;;;;;17.80;12.27;;;;;;;-139.48;100.00;61774.03;4993390;28;20380;-63
2021/05/12 03:27:01;;;;;;;17.90;11.93;;;;;;;-139.48;100.00;61774.03;4994599;28;20053;-63
2021/05/12 03:29:45;;;;;;;19.23;11.23;;;;;;;-139.48;100.00;61774.03;4994123;28;20049;-62
2021/05/12 03:32:29;;;;;;;18.48;10.32;;;;;;;-139.48;100.00;61774.03;4994434;28;20514;-63
2021/05/12 03:35:13;;;;;;;17.20;11.52;;;;;;;-139.48;100.00;61774.03;4979744;28;20069;-63
2021/05/12 03:37:57;;;;;;;17.08;10.77;;;;;;;-139.48;100.00;61774.03;4994381;28;20061;-62
2021/05/12 03:40:41;;;;;;;17.05;10.73;;;;;;;-139.48;100.00;61774.03;4993598;28;20077;-62
2021/05/12 03:43:26;;;;;;;19.52;10.30;;;;;;;-139.48;100.00;61774.03;4993079;28;20108;-62
2021/05/12 03:46:10;;;;;;;16.75;9.75;;;;;;;-139.48;100.00;61774.03;4993255;28;20105;-63
2021/05/12 03:48:54;;;;;;;17.20;9.27;;;;;;;-139.48;100.00;61774.03;4994030;28;20459;-62
2021/05/12 03:51:38;;;;;;;12.77;8.40;;;;;;;-139.48;100.00;61774.03;4993072;28;20049;-63
2021/05/12 03:54:22;;;;;;;11.95;7.80;;;;;;;-139.48;100.00;61774.03;4993877;28;20065;-63
2021/05/12 03:57:06;;;;;;;17.95;8.60;;;;;;;-139.48;100.00;61774.03;4993154;28;20084;-63
2021/05/12 03:59:50;;;;;;;11.45;7.85;;;;;;;-139.48;100.00;61774.03;4993894;28;20080;-63
2021/05/12 04:02:34;;;;;;;13.50;7.65;;;;;;;-139.48;100.00;61774.03;4994258;28;20049;-63
2021/05/12 04:05:18;;;;;;;12.75;7.10;;;;;;;-139.48;100.00;61774.03;4993662;28;20054;-63
2021/05/12 04:08:03;;;;;;;15.40;7.75;;;;;;;-139.48;100.00;61774.03;4992793;28;20061;-62
2021/05/12 04:10:47;;;;;;;12.18;7.40;;;;;;;-139.48;100.00;61774.03;4993853;28;20054;-63
2021/05/12 04:13:31;;;;;;;11.65;7.00;;;;;;;-139.48;100.00;61774.03;4992623;28;20130;-63
2021/05/12 04:16:15;;;;;;;12.02;6.90;;;;;;;-139.48;100.00;61774.03;4992424;28;20057;-63
2021/05/12 04:18:59;;;;;;;11.57;6.63;;;;;;;-139.48;100.00;61774.03;4992800;28;20053;-63
2021/05/12 04:21:43;;;;;;;11.80;6.20;;;;;;;-139.48;100.00;61774.03;4993929;28;20057;-63
2021/05/12 04:24:27;;;;;;;15.52;6.88;;;;;;;-139.48;100.00;61774.03;4993493;28;20084;-63
2021/05/12 04:27:11;;;;;;;11.68;6.25;;;;;;;-139.48;100.00;61774.03;4993365;28;20096;-63
2021/05/12 04:29:55;;;;;;;8.95;5.88;;;;;;;-139.48;100.00;61774.03;4992538;28;20142;-62
2021/05/12 04:32:40;;;;;;;8.73;5.68;;;;;;;-139.48;100.00;61774.03;4993288;28;20057;-63
2021/05/12 04:35:25;;;;;;;9.73;5.75;;;;;;;-139.48;100.00;61774.03;4992779;28;20128;-64
2021/05/12 04:38:10;;;;;;;7.65;5.70;;;;;;;-139.48;100.00;61774.03;4992184;28;20053;-63
2021/05/12 04:40:56;;;;;;;9.00;5.32;;;;;;;-139.48;100.00;61774.03;4993226;28;20507;-63
2021/05/12 04:43:39;;;;;;;7.40;4.97;;;;;;;-139.48;100.00;61774.03;4992467;28;20048;-63
2021/05/12 04:46:25;;;;;;;8.73;5.57;;;;;;;-139.48;100.00;61774.03;4993526;28;20045;-63
2021/05/12 04:49:09;;;;;;;12.27;5.40;;;;;;;-139.48;100.00;61774.03;4992267;28;20049;-62
2021/05/12 04:51:53;;;;;;;5.72;4.70;;;;;;;-139.48;100.00;61774.03;4992311;28;20117;-63
2021/05/12 04:54:37;;;;;;;8.88;5.25;;;;;;;-139.48;100.00;61774.03;4992357;28;20424;-63
2021/05/12 04:57:21;;;;;;;9.70;4.20;;;;;;;-139.48;100.00;61774.03;4978666;28;20557;-63
2021/05/12 05:00:05;;;;;;;7.93;4.82;;;;;;;-139.48;100.00;61774.03;4992069;28;20080;-63
2021/05/12 05:02:49;;;;;;;6.95;4.85;;;;;;;-139.48;100.00;61774.03;4992067;28;20188;-63
2021/05/12 05:05:33;;;;;;;13.52;5.10;;;;;;;-139.48;100.00;61774.03;4992204;28;20112;-63
2021/05/12 05:08:18;;;;;;;9.80;5.20;;;;;;;-139.48;100.00;61774.03;4994604;28;20470;-62
2021/05/12 05:11:02;;;;;;;7.15;5.20;;;;;;;-139.48;100.00;61774.03;4997103;28;20104;-62
2021/05/12 05:13:46;;;;;;;8.07;5.25;;;;;;;-139.48;100.00;61774.03;4995797;28;20426;-62
2021/05/12 05:16:29;;;;;;;6.70;4.72;;;;;;;-139.48;100.00;61774.03;4995880;28;20057;-63
2021/05/12 05:19:13;;;;;;;7.47;4.40;;;;;;;-139.48;100.00;61774.03;4997252;28;20356;-63
2021/05/12 05:21:58;;;;;;;12.80;5.75;;;;;;;-139.48;100.00;61774.03;4982179;28;20484;-63
2021/05/12 05:24:42;;;;;;;9.68;5.05;;;;;;;-139.48;100.00;61774.03;4996626;28;20096;-63
2021/05/12 05:27:26;;;;;;;;;;;;;;;-139.48;100.00;61774.03;4997287;28;20058;-63
2021/05/12 05:30:10;;;;;;;12.05;5.43;;;;;;;-139.48;100.00;61774.03;4982013;28;20011;-63
2021/05/12 05:33:01;;;;;;;14.60;5.78;;;;;;;-139.48;100.00;61774.03;4996757;28;20053;-63
2021/05/12 05:35:45;;;;;;;8.25;4.18;;;;;;;-139.48;100.00;61774.03;4995627;28;20129;-63
2021/05/12 05:38:28;;;;;;;8.75;4.90;;;;;;;-139.48;100.00;61774.03;4995525;28;20073;-63
2021/05/12 05:41:12;;;;;;;11.10;5.85;;;;;;;-139.48;100.00;61774.03;4996253;28;20061;-63
2021/05/12 05:43:56;;;;;;;13.65;5.90;;;;;;;-139.48;100.00;61774.03;4995272;28;20097;-63
2021/05/12 05:46:40;;;;;;;6.80;4.10;;;;;;;-139.48;100.00;61774.03;4996503;28;20053;-63
2021/05/12 05:49:24;;;;;;;11.77;6.10;;;;;;;-139.48;100.00;61774.03;4995333;28;20116;-62
2021/05/12 05:52:07;;;;;;;9.98;5.57;;;;;;;-139.48;100.00;61774.03;4995427;28;20049;-62
2021/05/12 05:54:51;;;;;;;9.82;5.70;;;;;;;-139.48;100.00;61774.03;4996142;28;20050;-63
2021/05/12 05:57:35;;;;;;;15.15;6.07;;;;;;;-139.48;100.00;61774.03;4995065;28;20052;-63
2021/05/12 06:00:20;;;;;;;8.77;5.13;;;;;;;-139.48;100.00;61774.03;4995154;28;20085;-63
2021/05/12 06:03:04;;;;;;;7.03;5.03;;;;;;;-139.48;100.00;61774.03;4996460;28;20048;-63
2021/05/12 06:05:49;;;;;;;9.15;4.97;;;;;;;-139.48;100.00;61774.03;5019123;22;20533;-69
2021/05/12 06:08:33;;;;;;;9.75;4.97;;;;;;;-139.48;100.00;61774.03;4994866;28;20053;-70
2021/05/12 06:11:16;;;;;;;9.80;4.78;;;;;;;-139.48;100.00;61774.03;4994606;28;20085;-69
2021/05/12 06:14:00;;;;;;;7.47;4.63;;;;;;;-139.48;100.00;61774.03;4995223;28;20045;-69
2021/05/12 06:16:45;;;;;;;8.27;4.05;;;;;;;-139.48;100.00;61774.03;4994729;28;20548;-69
2021/05/12 06:19:29;;;;;;;9.38;4.88;;;;;;;-139.48;100.00;61774.03;4980315;28;20491;-69
2021/05/12 06:22:13;;;;;;;13.52;5.05;;;;;;;-139.48;100.00;61774.03;4995652;28;20411;-70
2021/05/12 06:24:56;;;;;;;12.50;4.57;;;;;;;-139.48;100.00;61774.03;4981054;28;20049;-69
2021/05/12 06:27:41;;;;;;;7.35;3.78;;;;;;;-139.48;100.00;61774.03;4994822;28;20057;-69
2021/05/12 06:30:25;;;;;;;6.60;3.83;;;;;;;-139.48;100.00;61774.03;4995538;28;20468;-69
2021/05/12 06:33:09;;;;;;;9.75;4.35;;;;;;;-139.48;100.00;61774.03;4995671;28;20133;-69
2021/05/12 06:35:53;;;;;;;5.53;3.55;;;;;;;-139.48;100.00;61774.03;4994618;28;20352;-69
2021/05/12 06:38:37;;;;;;;6.55;3.75;;;;;;;-139.48;100.00;61774.03;4995505;28;20410;-69
2021/05/12 06:41:21;;;;;;;6.53;3.80;;;;;;;-139.48;100.00;61774.03;4980789;28;20112;-69
2021/05/12 06:44:05;;;;;;;6.10;3.20;;;;;;;-139.48;100.00;61774.03;4995191;28;20411;-69
2021/05/12 06:46:51;;;;;;;7.65;3.60;;;;;;;-139.48;100.00;61774.03;4994657;28;20446;-69
2021/05/12 06:49:35;;;;;;;8.88;3.25;;;;;;;-139.48;100.00;61774.03;4980809;28;20081;-67
2021/05/12 06:52:19;;;;;;;4.70;3.20;;;;;;;-139.48;100.00;61774.03;4980662;28;20109;-70
2021/05/12 06:55:04;;;;;;;7.30;3.17;;;;;;;-139.48;100.00;61774.03;4995001;28;20048;-69
2021/05/12 06:57:48;;;;;;;5.93;3.50;;;;;;;-139.48;100.00;61774.03;4980373;28;20140;-69
2021/05/12 07:00:32;;;;;;;5.15;3.28;;;;;;;-139.48;100.00;61774.03;4994149;28;20126;-70
2021/05/12 07:03:16;;;;;;;3.30;2.55;;;;;;;-139.48;100.00;61774.03;4993963;28;20108;-70
2021/05/12 07:06:01;;;;;;;2.70;2.47;;;;;;;-139.48;100.00;61774.03;4980023;28;20435;-69
2021/05/12 07:08:50;;;;;;;6.78;2.78;;;;;;;-139.48;100.00;61774.03;4995545;28;20512;-69
2021/05/12 07:11:34;;;;;;;6.47;2.80;;;;;;;-139.48;100.00;61774.03;4993745;28;20049;-69
2021/05/12 07:14:18;;;;;;;7.72;3.08;;;;;;;-139.48;100.00;61774.03;4993902;28;20041;-69
2021/05/12 07:17:02;;;;;;;9.38;3.15;;;;;;;-139.48;100.00;61774.03;4979819;28;20509;-70
2021/05/12 07:19:46;;;;;;;10.43;3.40;;;;;;;-139.48;100.00;61774.03;4979970;28;20103;-70
2021/05/12 07:22:30;;;;;;;4.78;3.03;;;;;;;-139.48;100.00;61774.03;4993586;28;20120;-69
2021/05/12 07:25:14;;;;;;;4.45;2.90;;;;;;;-139.48;100.00;61774.03;4994282;28;20125;-69
2021/05/12 07:27:58;;;;;;;;;;;;;;;-139.48;100.00;61774.03;4993986;28;20109;-69
2021/05/12 07:30:43;;;;;;;7.55;3.15;;;;;;;-139.48;100.00;61774.03;4993329;28;19920;-69
2021/05/12 07:33:27;;;;;;;6.25;3.30;;;;;;;-139.48;100.00;61774.03;4979442;28;20257;-69
2021/05/12 07:36:11;;;;;;;4.90;2.90;;;;;;;-139.48;100.00;61774.03;4993113;28;20053;-69
2021/05/12 07:38:55;;;;;;;5.30;3.15;;;;;;;-139.48;100.00;61774.03;4993442;28;20133;-69
2021/05/12 07:41:39;;;;;;;5.03;3.08;;;;;;;-139.48;100.00;61774.03;4979684;28;20073;-69
2021/05/12 07:44:23;;;;;;;6.68;3.17;;;;;;;-139.48;100.00;61774.03;4993191;28;20472;-69
2021/05/12 07:47:07;;;;;;;5.53;3.03;;;;;;;-139.48;100.00;61774.03;4993116;28;20130;-70
2021/05/12 07:49:51;;;;;;;4.68;2.80;;;;;;;-139.48;100.00;61774.03;4992992;28;20217;-69
2021/05/12 07:52:35;;;;;;;5.65;3.03;;;;;;;-139.48;100.00;61774.03;4994194;28;20049;-69
2021/05/12 07:55:19;;;;;;;4.65;3.10;;;;;;;-139.48;100.00;61774.03;4992972;28;20045;-69
2021/05/12 07:58:04;;;;;;;4.18;2.95;;;;;;;-139.48;100.00;61774.03;4993062;28;20100;-69
2021/05/12 08:00:48;;;;;;;8.63;3.70;;;;;;;-139.48;100.00;61774.03;4979183;28;20104;-69
2021/05/12 08:03:32;;;;;;;6.10;3.38;;;;;;;-139.48;100.00;61774.03;4994391;28;20104;-68
2021/05/12 08:06:16;;;;;;;7.95;3.28;;;;;;;-139.48;100.00;61774.03;4978834;28;20089;-69
2021/05/12 08:09:02;;;;;;;6.00;3.08;;;;;;;-139.48;100.00;61774.03;4992847;28;20080;-69
2021/05/12 08:11:46;;;;;;;9.63;3.47;;;;;;;-139.48;100.00;61774.03;4992662;28;20057;-70
2021/05/12 08:14:31;;;;;;;9.55;3.05;;;;;;;-139.48;100.00;61774.03;4992948;28;20096;-69
2021/05/12 08:17:15;;;;;;;5.90;3.08;;;;;;;-139.48;100.00;61774.03;4993507;28;20065;-69
2021/05/12 08:20:00;;;;;;;6.38;3.20;;;;;;;-139.48;100.00;61774.03;4978975;28;20569;-69
2021/05/12 08:22:45;;;;;;;4.03;3.05;;;;;;;-139.48;100.00;61774.03;4979079;28;20133;-70
2021/05/12 08:25:28;;;;;;;6.03;2.63;;;;;;;-139.48;100.00;61774.03;4992429;28;20133;-70
2021/05/12 08:28:12;;;;;;;8.10;3.28;;;;;;;-139.48;100.00;61774.03;4992559;28;20521;-69
2021/05/12 08:30:57;;;;;;;3.95;2.67;;;;;;;-139.48;100.00;61774.03;4992381;28;20046;-69
2021/05/12 08:33:42;;;;;;;6.47;3.10;;;;;;;-139.48;100.00;61774.03;4992345;28;20100;-68
2021/05/12 08:36:26;;;;;;;4.57;2.50;;;;;;;-139.48;100.00;61774.03;4992425;28;20410;-69
2021/05/12 08:39:10;;;;;;;8.32;3.30;;;;;;;-139.48;100.00;61774.03;4978755;28;20052;-69
2021/05/12 08:41:54;;;;;;;4.80;3.20;;;;;;;-139.48;100.00;61774.03;4978534;28;20085;-69
2021/05/12 08:44:38;;;;;;;6.30;2.78;;;;;;;-139.48;100.00;61774.03;4992243;28;20061;-69
2021/05/12 08:47:25;;;;;;;5.30;3.08;;;;;;;-139.48;100.00;61774.03;4978916;28;20061;-68
2021/05/12 08:50:10;;;;;;;4.10;2.78;;;;;;;-139.48;100.00;61774.03;4992306;28;20049;-69
2021/05/12 08:52:54;;;;;;;5.63;3.22;;;;;;;-139.48;100.00;61774.03;4992011;28;20129;-69
2021/05/12 08:55:38;;;;;;;7.47;3.30;;;;;;;-139.48;100.00;61774.03;4978441;28;20097;-69
2021/05/12 08:58:22;;;;;;;5.32;3.38;;;;;;;-139.48;100.00;61774.03;4992994;28;20501;-69
2021/05/12 09:01:06;;;;;;;4.63;3.30;;;;;;;-139.48;100.00;61774.03;4978590;28;20052;-70
2021/05/12 09:03:50;;;;;;;5.05;3.17;;;;;;;-139.48;100.00;61774.03;4978406;28;20053;-69
2021/05/12 09:06:36;;;;;;;7.18;3.17;;;;;;;-139.48;100.00;61774.03;4991976;28;20085;-70
2021/05/12 09:09:21;;;;;;;4.72;3.13;;;;;;;-139.48;100.00;61774.03;4978675;28;20064;-69
2021/05/12 09:12:05;;;;;;;5.93;3.45;;;;;;;-139.48;100.00;61774.03;4993642;28;20066;-69
2021/05/12 09:14:55;;;;;;;6.18;3.53;;;;;;;-139.48;100.00;61774.03;4978200;28;20097;-69
2021/05/12 09:17:40;;;;;;;6.45;3.20;;;;;;;-139.48;100.00;61774.03;4992048;28;20057;-69
2021/05/12 09:20:31;;;;;;;5.35;3.03;;;;;;;-139.48;100.00;61774.03;4992019;28;20049;-70
2021/05/12 09:23:17;;;;;;;8.45;4.10;;;;;;;-139.48;100.00;61774.03;4991994;28;20499;-69
2021/05/12 09:26:01;;;;;;;6.57;3.78;;;;;;;-139.48;100.00;61774.03;4991699;28;20053;-69
2021/05/12 09:28:45;;;;;;;7.45;3.10;;;;;;;-139.48;100.00;61774.03;4978308;28;20422;-69
2021/05/12 09:31:36;;;;;;;10.80;3.75;;;;;;;-139.48;100.00;61774.03;4993298;28;20155;-69
2021/05/12 09:34:21;;;;;;;7.05;3.60;;;;;;;-139.48;100.00;61774.03;4978183;28;20054;-69
2021/05/12 09:37:33;;;;;;;5.28;3.33;;;;;;;-139.48;100.00;61774.03;4991907;28;20156;-69
2021/05/12 09:40:22;;;;;;;8.23;3.33;;;;;;;-139.48;100.00;61774.03;4978285;28;20503;-69
2021/05/12 09:43:06;;;;;;;6.88;3.60;;;;;;;-139.48;100.00;61774.03;4991856;28;20089;-69
2021/05/12 09:45:50;;;;;;;7.93;3.80;;;;;;;-139.48;100.00;61774.03;4992831;28;20112;-69
2021/05/12 09:48:34;;;;;;;8.25;3.78;;;;;;;-139.48;100.00;61774.03;4992879;28;20431;-69
2021/05/12 09:51:19;;;;;;;7.22;3.45;;;;;;;-139.48;100.00;61774.03;4991817;28;20053;-69
2021/05/12 09:54:13;;;;;;;8.00;3.40;;;;;;;-139.48;100.00;61774.03;4991659;28;20150;-69
2021/05/12 09:56:57;;;;;;;6.78;3.55;;;;;;;-139.48;100.00;61774.03;4995252;28;20053;-69
2021/05/12 09:59:41;;;;;;;4.60;3.38;;;;;;;-139.48;100.00;61774.03;4995218;28;20053;-69
2021/05/12 10:02:25;;;;;;;5.50;3.05;;;;;;;-139.48;100.00;61774.03;4995265;28;20169;-69
2021/05/12 10:05:10;;;;;;;3.85;3.30;;;;;;;-139.48;100.00;61774.03;4995983;28;20522;-70
2021/05/12 10:08:00;;;;;;;6.53;3.45;;;;;;;-139.48;100.00;61774.03;4981451;28;20148;-69
2021/05/12 10:10:44;;;;;;;4.15;3.72;;;;;;;-139.48;100.00;61774.03;4994907;28;20049;-69
2021/05/12 10:13:29;;;;;;;6.85;3.83;;;;;;;-139.48;100.00;61774.03;4995182;28;20053;-69
2021/05/12 10:16:13;;;;;;;7.13;4.03;;;;;;;-139.48;100.00;61774.03;4995727;28;20108;-70
2021/05/12 10:18:57;;;;;;;7.05;3.38;;;;;;;-139.48;100.00;61774.03;4994989;28;20108;-69
2021/05/12 10:21:41;;;;;;;6.30;3.75;;;;;;;-139.48;100.00;61774.03;4981157;28;20068;-70
2021/05/12 10:24:26;;;;;;;6.53;3.60;;;;;;;-139.48;100.00;61774.03;4994503;28;20517;-69
2021/05/12 10:27:14;;;;;;;8.98;3.15;;;;;;;-139.48;100.00;61774.03;4994765;28;20056;-70
2021/05/12 10:29:58;;;;;;;4.72;3.28;;;;;;;-139.48;100.00;61774.03;4995826;28;20139;-69
2021/05/12 10:32:47;;;;;;;5.80;3.05;;;;;;;-139.48;100.00;61774.03;4994463;28;20054;-69
2021/05/12 10:35:36;;;;;;;5.85;3.35;;;;;;;-139.48;100.00;61774.03;4995652;28;20096;-68
2021/05/12 10:38:33;;;;;;;6.13;3.30;;;;;;;-139.48;100.00;61774.03;4981105;28;20085;-69
2021/05/12 10:41:35;;;;;;;4.47;3.25;;;;;;;-139.48;100.00;61774.03;4994466;28;20092;-69
2021/05/12 10:44:41;;;;;;;6.13;3.03;;;;;;;-139.48;100.00;61774.03;4994325;28;20180;-69
2021/05/12 10:47:36;;;;;;;6.63;3.33;;;;;;;-139.48;100.00;61774.03;4994449;28;20116;-69
2021/05/12 10:50:19;;;;;;;5.40;3.00;;;;;;;-139.48;100.00;61774.03;4994568;28;20060;-69
2021/05/12 10:53:19;;;;;;;11.75;3.03;;;;;;;-139.48;100.00;61774.03;4995329;28;20053;-70
2021/05/12 10:56:05;;;;;;;5.90;2.92;;;;;;;-139.48;100.00;61774.03;4994192;28;20064;-70
2021/05/12 10:58:56;;;;;;;6.72;2.85;;;;;;;-139.48;100.00;61774.03;4993972;28;20057;-70
2021/05/12 11:01:40;;;;;;;5.75;3.10;;;;;;;-139.48;100.00;61774.03;4994408;28;20073;-69
2021/05/12 11:04:25;;;;;;;7.18;3.28;;;;;;;-139.48;100.00;61774.03;4993721;28;20081;-69
2021/05/12 11:07:09;;;;;;;5.60;2.90;;;;;;;-139.48;100.00;61774.03;4993376;28;20096;-69
2021/05/12 11:09:55;;;;;;;6.68;3.15;;;;;;;-139.48;100.00;61774.03;4994026;28;20049;-69
2021/05/12 11:12:40;;;;;;;7.75;3.50;;;;;;;-139.48;100.00;61774.03;4994939;28;20142;-69
2021/05/12 11:15:24;;;;;;;9.10;3.33;;;;;;;-139.48;100.00;61774.03;4994561;28;20045;-69
2021/05/12 11:18:08;;;;;;;5.43;3.17;;;;;;;-139.48;100.00;61774.03;4993712;28;20056;-69
2021/05/12 11:21:18;;;;;;;7.65;3.42;;;;;;;-139.48;100.00;61774.03;4993757;28;20057;-70
2021/05/12 11:24:11;;;;;;;6.57;3.03;;;;;;;-139.48;100.00;61774.03;4994712;28;20077;-70
2021/05/12 11:27:17;;;;;;;7.43;2.80;;;;;;;-139.48;100.00;61774.03;4994373;28;20130;-70
2021/05/12 11:32:52;;;;;;;6.97;2.90;;;;;;;-139.48;100.00;61774.03;4994522;28;20530;-70
2021/05/12 11:35:36;;;;;;;7.35;3.00;;;;;;;-139.48;100.00;61774.03;4994515;28;20045;-70
2021/05/12 11:38:20;;;;;;;6.82;2.78;;;;;;;-139.48;100.00;61774.03;4993441;28;20096;-70
2021/05/12 11:41:05;;;;;;;4.95;2.70;;;;;;;-139.48;100.00;61774.03;4993226;28;20128;-69
2021/05/12 11:43:56;;;;;;;8.68;3.22;;;;;;;-139.48;100.00;61774.03;4979383;28;20181;-69
2021/05/12 11:46:41;;;;;;;10.60;3.20;;;;;;;-139.48;100.00;61774.03;4994041;28;20061;-69
2021/05/12 11:49:28;;;;;;;4.45;3.03;;;;;;;-139.48;100.00;61774.03;4992993;28;20052;-69
2021/05/12 11:52:12;;;;;;;3.85;3.00;;;;;;;-139.48;100.00;61774.03;4993264;28;20468;-69
2021/05/12 11:55:07;;;;;;;6.90;2.60;;;;;;;-139.48;100.00;61774.03;4993108;28;20045;-69
2021/05/12 11:57:52;;;;;;;3.47;1.85;;;;;;;-139.48;100.00;61774.03;4992914;28;20049;-69
2021/05/12 12:00:38;;;;;;;6.35;2.53;;;;;;;-139.48;100.00;61774.03;4993355;28;20120;-69
2021/05/12 12:03:26;;;;;;;6.90;2.55;;;;;;;-139.48;100.00;61774.03;4992705;28;20050;-69
2021/05/12 12:06:13;;;;;;;7.78;2.35;;;;;;;-139.48;100.00;61774.03;4979369;28;20573;-69
2021/05/12 12:08:57;;;;;;;4.28;2.25;;;;;;;-139.48;100.00;61774.03;5007384;23;20136;-73
2021/05/12 12:11:42;;;;;;;4.07;2.28;;;;;;;-139.48;100.00;61774.03;4993710;28;20496;-70
2021/05/12 12:14:33;;;;;;;5.07;2.10;;;;;;;-139.48;100.00;61774.03;4992684;28;20506;-72
2021/05/12 12:17:18;;;;;;;5.47;2.30;;;;;;;-139.48;100.00;61774.03;4992140;28;20069;-72
2021/05/12 12:20:07;;;;;;;5.63;2.28;;;;;;;-139.48;100.00;61774.03;4993168;28;20081;-72
2021/05/12 12:22:51;;;;;;;8.02;2.75;;;;;;;-139.48;100.00;61774.03;4979013;28;20145;-71
2021/05/12 12:25:47;;;;;;;4.47;2.50;;;;;;;-139.48;100.00;61774.03;4992371;28;20478;-73
2021/05/12 12:28:31;;;;;;;7.13;2.45;;;;;;;-139.48;100.00;61774.03;4992776;28;20081;-71
2021/05/12 12:31:27;;;;;;;5.95;2.33;;;;;;;-139.48;100.00;61774.03;4979271;28;20184;-72